sensor_id;sensor_type;location;lat;lon;timestamp;P1;durP1;ratioP1;P2;durP2;ratioP2
2031;SDS011;27625;50.422;7.944;2022-08-24T00:02:35;9.13;;;5.30;;
2031;SDS011;27625;50.422;7.944;2022-08-24T00:05:02;10.50;;;5.50;;
2031;SDS011;27625;50.422;7.944;2022-08-24T00:07:29;7.20;;;5.17;;
2031;SDS011;27625;50.422;7.944;2022-08-24T00:10:03;7.07;;;5.17;;
2031;SDS011;27625;50.422;7.944;2022-08-24T00:12:31;7.37;;;6.00;;
2031;SDS011;27625;50.422;7.944;2022-08-24T00:14:58;8.10;;;5.90;;
2031;SDS011;27625;50.422;7.944;2022-08-24T00:17:25;11.57;;;6.50;;
2031;SDS011;27625;50.422;7.944;2022-08-24T00:19:55;10.03;;;6.20;;
2031;SDS011;27625;50.422;7.944;2022-08-24T00:22:23;7.40;;;5.30;;
2031;SDS011;27625;50.422;7.944;2022-08-24T00:24:50;8.70;;;5.90;;
2031;SDS011;27625;50.422;7.944;2022-08-24T00:27:17;12.53;;;6.33;;
2031;SDS011;27625;50.422;7.944;2022-08-24T00:29:43;11.00;;;6.33;;
2031;SDS011;27625;50.422;7.944;2022-08-24T00:32:10;8.67;;;5.70;;
2031;SDS011;27625;50.422;7.944;2022-08-24T00:34:36;7.67;;;5.53;;
2031;SDS011;27625;50.422;7.944;2022-08-24T00:37:04;8.37;;;5.77;;
2031;SDS011;27625;50.422;7.944;2022-08-24T00:39:31;9.73;;;5.90;;
2031;SDS011;27625;50.422;7.944;2022-08-24T00:41:57;8.00;;;5.50;;
2031;SDS011;27625;50.422;7.944;2022-08-24T00:44:24;10.07;;;5.20;;
2031;SDS011;27625;50.422;7.944;2022-08-24T00:46:52;10.00;;;5.33;;
2031;SDS011;27625;50.422;7.944;2022-08-24T00:49:23;10.07;;;5.60;;
2031;SDS011;27625;50.422;7.944;2022-08-24T00:51:55;9.37;;;5.07;;
2031;SDS011;27625;50.422;7.944;2022-08-24T00:54:27;9.23;;;5.73;;
2031;SDS011;27625;50.422;7.944;2022-08-24T00:56:55;7.00;;;5.03;;
2031;SDS011;27625;50.422;7.944;2022-08-24T00:59:25;8.67;;;5.27;;
2031;SDS011;27625;50.422;7.944;2022-08-24T01:01:55;7.53;;;5.17;;
2031;SDS011;27625;50.422;7.944;2022-08-24T01:04:24;10.17;;;6.13;;
2031;SDS011;27625;50.422;7.944;2022-08-24T01:06:53;8.33;;;5.60;;
2031;SDS011;27625;50.422;7.944;2022-08-24T01:09:19;8.50;;;5.70;;
2031;SDS011;27625;50.422;7.944;2022-08-24T01:11:48;8.43;;;5.57;;
2031;SDS011;27625;50.422;7.944;2022-08-24T01:14:15;9.73;;;5.40;;
2031;SDS011;27625;50.422;7.944;2022-08-24T01:16:42;8.47;;;5.37;;
2031;SDS011;27625;50.422;7.944;2022-08-24T01:19:28;11.47;;;5.50;;
2031;SDS011;27625;50.422;7.944;2022-08-24T01:21:59;7.80;;;5.47;;
2031;SDS011;27625;50.422;7.944;2022-08-24T01:24:33;8.50;;;6.13;;
2031;SDS011;27625;50.422;7.944;2022-08-24T01:27:00;7.07;;;5.53;;
2031;SDS011;27625;50.422;7.944;2022-08-24T01:29:28;8.50;;;5.80;;
2031;SDS011;27625;50.422;7.944;2022-08-24T01:31:56;7.10;;;5.10;;
2031;SDS011;27625;50.422;7.944;2022-08-24T01:34:24;6.57;;;5.33;;
2031;SDS011;27625;50.422;7.944;2022-08-24T01:36:51;6.93;;;5.80;;
2031;SDS011;27625;50.422;7.944;2022-08-24T01:39:21;9.27;;;5.27;;
2031;SDS011;27625;50.422;7.944;2022-08-24T01:41:52;6.50;;;4.83;;
2031;SDS011;27625;50.422;7.944;2022-08-24T01:44:19;10.87;;;6.10;;
2031;SDS011;27625;50.422;7.944;2022-08-24T01:46:49;7.70;;;5.80;;
2031;SDS011;27625;50.422;7.944;2022-08-24T01:49:18;7.40;;;5.50;;
2031;SDS011;27625;50.422;7.944;2022-08-24T01:51:45;8.57;;;5.43;;
2031;SDS011;27625;50.422;7.944;2022-08-24T01:54:11;9.50;;;6.07;;
2031;SDS011;27625;50.422;7.944;2022-08-24T01:56:39;7.80;;;5.50;;
2031;SDS011;27625;50.422;7.944;2022-08-24T01:59:07;8.07;;;6.43;;
2031;SDS011;27625;50.422;7.944;2022-08-24T02:01:36;10.83;;;6.87;;
2031;SDS011;27625;50.422;7.944;2022-08-24T02:04:04;9.23;;;5.97;;
2031;SDS011;27625;50.422;7.944;2022-08-24T02:06:32;9.33;;;6.50;;
2031;SDS011;27625;50.422;7.944;2022-08-24T02:08:58;10.00;;;6.60;;
2031;SDS011;27625;50.422;7.944;2022-08-24T02:11:25;12.17;;;6.57;;
2031;SDS011;27625;50.422;7.944;2022-08-24T02:13:52;7.90;;;5.50;;
2031;SDS011;27625;50.422;7.944;2022-08-24T02:16:20;8.53;;;6.13;;
2031;SDS011;27625;50.422;7.944;2022-08-24T02:18:48;9.10;;;6.13;;
2031;SDS011;27625;50.422;7.944;2022-08-24T02:21:14;9.70;;;6.10;;
2031;SDS011;27625;50.422;7.944;2022-08-24T02:23:41;8.70;;;6.27;;
2031;SDS011;27625;50.422;7.944;2022-08-24T02:26:09;7.17;;;5.97;;
2031;SDS011;27625;50.422;7.944;2022-08-24T02:28:36;8.20;;;6.40;;
2031;SDS011;27625;50.422;7.944;2022-08-24T02:31:04;9.77;;;5.40;;
2031;SDS011;27625;50.422;7.944;2022-08-24T02:33:34;7.30;;;5.83;;
2031;SDS011;27625;50.422;7.944;2022-08-24T02:36:00;6.53;;;5.40;;
2031;SDS011;27625;50.422;7.944;2022-08-24T02:38:27;7.10;;;5.70;;
2031;SDS011;27625;50.422;7.944;2022-08-24T02:40:54;6.90;;;5.50;;
2031;SDS011;27625;50.422;7.944;2022-08-24T02:43:21;9.17;;;5.60;;
2031;SDS011;27625;50.422;7.944;2022-08-24T02:45:48;8.40;;;5.80;;
2031;SDS011;27625;50.422;7.944;2022-08-24T02:48:15;8.33;;;5.30;;
2031;SDS011;27625;50.422;7.944;2022-08-24T02:50:45;9.00;;;5.40;;
2031;SDS011;27625;50.422;7.944;2022-08-24T02:53:14;8.10;;;5.50;;
2031;SDS011;27625;50.422;7.944;2022-08-24T02:55:41;6.97;;;5.50;;
2031;SDS011;27625;50.422;7.944;2022-08-24T02:58:09;6.87;;;5.43;;
2031;SDS011;27625;50.422;7.944;2022-08-24T03:03:12;7.30;;;5.20;;
2031;SDS011;27625;50.422;7.944;2022-08-24T03:05:39;11.73;;;5.40;;
2031;SDS011;27625;50.422;7.944;2022-08-24T03:08:07;8.60;;;5.70;;
2031;SDS011;27625;50.422;7.944;2022-08-24T03:10:33;7.47;;;5.03;;
2031;SDS011;27625;50.422;7.944;2022-08-24T03:13:00;11.83;;;5.67;;
2031;SDS011;27625;50.422;7.944;2022-08-24T03:15:27;7.17;;;5.40;;
2031;SDS011;27625;50.422;7.944;2022-08-24T03:17:54;6.67;;;5.50;;
2031;SDS011;27625;50.422;7.944;2022-08-24T03:20:20;6.40;;;4.80;;
2031;SDS011;27625;50.422;7.944;2022-08-24T03:22:47;6.00;;;5.10;;
2031;SDS011;27625;50.422;7.944;2022-08-24T03:25:16;10.13;;;5.03;;
2031;SDS011;27625;50.422;7.944;2022-08-24T03:27:43;6.13;;;5.27;;
2031;SDS011;27625;50.422;7.944;2022-08-24T03:30:10;7.37;;;5.60;;
2031;SDS011;27625;50.422;7.944;2022-08-24T03:32:38;8.63;;;5.63;;
2031;SDS011;27625;50.422;7.944;2022-08-24T03:35:05;12.40;;;5.40;;
2031;SDS011;27625;50.422;7.944;2022-08-24T03:37:32;6.67;;;4.70;;
2031;SDS011;27625;50.422;7.944;2022-08-24T03:39:59;7.93;;;4.80;;
2031;SDS011;27625;50.422;7.944;2022-08-24T03:42:27;8.20;;;5.13;;
2031;SDS011;27625;50.422;7.944;2022-08-24T03:44:53;6.90;;;5.10;;
2031;SDS011;27625;50.422;7.944;2022-08-24T03:47:20;7.70;;;5.10;;
2031;SDS011;27625;50.422;7.944;2022-08-24T03:49:47;6.77;;;5.10;;
2031;SDS011;27625;50.422;7.944;2022-08-24T03:52:13;10.43;;;4.80;;
2031;SDS011;27625;50.422;7.944;2022-08-24T03:54:40;7.63;;;5.20;;
2031;SDS011;27625;50.422;7.944;2022-08-24T03:57:06;8.27;;;5.27;;
2031;SDS011;27625;50.422;7.944;2022-08-24T03:59:34;10.43;;;4.60;;
2031;SDS011;27625;50.422;7.944;2022-08-24T04:02:00;8.43;;;4.73;;
2031;SDS011;27625;50.422;7.944;2022-08-24T04:04:27;7.87;;;5.27;;
2031;SDS011;27625;50.422;7.944;2022-08-24T04:06:57;7.40;;;5.00;;
2031;SDS011;27625;50.422;7.944;2022-08-24T04:09:24;7.17;;;5.17;;
2031;SDS011;27625;50.422;7.944;2022-08-24T04:11:50;7.47;;;5.43;;
2031;SDS011;27625;50.422;7.944;2022-08-24T04:14:17;6.00;;;4.77;;
2031;SDS011;27625;50.422;7.944;2022-08-24T04:16:45;6.53;;;4.67;;
2031;SDS011;27625;50.422;7.944;2022-08-24T04:19:12;6.50;;;4.73;;
2031;SDS011;27625;50.422;7.944;2022-08-24T04:21:39;6.03;;;4.93;;
2031;SDS011;27625;50.422;7.944;2022-08-24T04:24:06;7.30;;;4.67;;
2031;SDS011;27625;50.422;7.944;2022-08-24T04:26:34;7.30;;;4.90;;
2031;SDS011;27625;50.422;7.944;2022-08-24T04:29:02;6.20;;;5.00;;
2031;SDS011;27625;50.422;7.944;2022-08-24T04:31:29;7.40;;;4.60;;
2031;SDS011;27625;50.422;7.944;2022-08-24T04:33:57;7.70;;;5.53;;
2031;SDS011;27625;50.422;7.944;2022-08-24T04:36:23;6.20;;;4.90;;
2031;SDS011;27625;50.422;7.944;2022-08-24T04:38:50;6.23;;;4.90;;
2031;SDS011;27625;50.422;7.944;2022-08-24T04:41:16;9.10;;;4.90;;
2031;SDS011;27625;50.422;7.944;2022-08-24T04:43:45;6.00;;;4.80;;
2031;SDS011;27625;50.422;7.944;2022-08-24T04:46:13;6.90;;;4.80;;
2031;SDS011;27625;50.422;7.944;2022-08-24T04:48:41;8.33;;;5.33;;
2031;SDS011;27625;50.422;7.944;2022-08-24T04:51:11;6.73;;;4.30;;
2031;SDS011;27625;50.422;7.944;2022-08-24T04:53:38;7.43;;;4.57;;
2031;SDS011;27625;50.422;7.944;2022-08-24T04:56:08;9.47;;;4.87;;
2031;SDS011;27625;50.422;7.944;2022-08-24T04:58:36;7.37;;;5.30;;
2031;SDS011;27625;50.422;7.944;2022-08-24T05:01:05;5.97;;;4.87;;
2031;SDS011;27625;50.422;7.944;2022-08-24T05:03:32;5.57;;;4.20;;
2031;SDS011;27625;50.422;7.944;2022-08-24T05:05:59;6.23;;;4.50;;
2031;SDS011;27625;50.422;7.944;2022-08-24T05:08:27;5.33;;;4.17;;
2031;SDS011;27625;50.422;7.944;2022-08-24T05:10:53;7.53;;;4.40;;
2031;SDS011;27625;50.422;7.944;2022-08-24T05:13:20;5.70;;;3.97;;
2031;SDS011;27625;50.422;7.944;2022-08-24T05:15:47;8.20;;;4.30;;
2031;SDS011;27625;50.422;7.944;2022-08-24T05:18:14;9.77;;;4.33;;
2031;SDS011;27625;50.422;7.944;2022-08-24T05:20:42;6.97;;;3.90;;
2031;SDS011;27625;50.422;7.944;2022-08-24T05:23:10;6.83;;;4.53;;
2031;SDS011;27625;50.422;7.944;2022-08-24T05:25:39;9.27;;;4.83;;
2031;SDS011;27625;50.422;7.944;2022-08-24T05:28:06;6.50;;;3.97;;
2031;SDS011;27625;50.422;7.944;2022-08-24T05:30:33;8.13;;;4.00;;
2031;SDS011;27625;50.422;7.944;2022-08-24T05:33:00;6.80;;;3.97;;
2031;SDS011;27625;50.422;7.944;2022-08-24T05:35:27;5.47;;;3.73;;
2031;SDS011;27625;50.422;7.944;2022-08-24T05:37:53;5.97;;;3.90;;
2031;SDS011;27625;50.422;7.944;2022-08-24T05:40:20;5.13;;;3.67;;
2031;SDS011;27625;50.422;7.944;2022-08-24T05:42:49;5.73;;;4.00;;
2031;SDS011;27625;50.422;7.944;2022-08-24T05:45:15;5.13;;;3.80;;
2031;SDS011;27625;50.422;7.944;2022-08-24T05:47:42;8.10;;;3.63;;
2031;SDS011;27625;50.422;7.944;2022-08-24T05:50:09;7.73;;;3.93;;
2031;SDS011;27625;50.422;7.944;2022-08-24T05:52:36;7.10;;;4.03;;
2031;SDS011;27625;50.422;7.944;2022-08-24T05:55:03;8.17;;;3.80;;
2031;SDS011;27625;50.422;7.944;2022-08-24T05:57:31;5.33;;;3.70;;
2031;SDS011;27625;50.422;7.944;2022-08-24T06:00:01;5.10;;;3.23;;
2031;SDS011;27625;50.422;7.944;2022-08-24T06:02:31;7.00;;;3.97;;
2031;SDS011;27625;50.422;7.944;2022-08-24T06:04:58;5.30;;;3.80;;
2031;SDS011;27625;50.422;7.944;2022-08-24T06:07:25;5.60;;;3.27;;
2031;SDS011;27625;50.422;7.944;2022-08-24T06:09:51;4.83;;;3.60;;
2031;SDS011;27625;50.422;7.944;2022-08-24T06:12:18;7.07;;;3.37;;
2031;SDS011;27625;50.422;7.944;2022-08-24T06:14:45;7.47;;;3.63;;
2031;SDS011;27625;50.422;7.944;2022-08-24T06:17:14;5.90;;;3.27;;
2031;SDS011;27625;50.422;7.944;2022-08-24T06:19:40;5.73;;;3.63;;
2031;SDS011;27625;50.422;7.944;2022-08-24T06:22:07;5.93;;;3.57;;
2031;SDS011;27625;50.422;7.944;2022-08-24T06:24:35;6.17;;;3.90;;
2031;SDS011;27625;50.422;7.944;2022-08-24T06:27:19;7.87;;;4.03;;
2031;SDS011;27625;50.422;7.944;2022-08-24T06:29:47;7.53;;;3.70;;
2031;SDS011;27625;50.422;7.944;2022-08-24T06:32:15;5.17;;;3.30;;
2031;SDS011;27625;50.422;7.944;2022-08-24T06:34:42;6.00;;;3.53;;
2031;SDS011;27625;50.422;7.944;2022-08-24T06:37:09;6.13;;;3.47;;
2031;SDS011;27625;50.422;7.944;2022-08-24T06:39:35;8.70;;;3.60;;
2031;SDS011;27625;50.422;7.944;2022-08-24T06:42:02;6.43;;;3.50;;
2031;SDS011;27625;50.422;7.944;2022-08-24T06:44:29;6.00;;;3.77;;
2031;SDS011;27625;50.422;7.944;2022-08-24T06:46:56;7.07;;;3.50;;
2031;SDS011;27625;50.422;7.944;2022-08-24T06:49:24;4.77;;;3.33;;
2031;SDS011;27625;50.422;7.944;2022-08-24T06:51:50;5.10;;;3.40;;
2031;SDS011;27625;50.422;7.944;2022-08-24T06:54:17;6.93;;;3.40;;
2031;SDS011;27625;50.422;7.944;2022-08-24T06:56:44;5.37;;;3.60;;
2031;SDS011;27625;50.422;7.944;2022-08-24T06:59:14;5.07;;;3.20;;
2031;SDS011;27625;50.422;7.944;2022-08-24T07:01:40;5.27;;;3.40;;
2031;SDS011;27625;50.422;7.944;2022-08-24T07:04:07;6.30;;;3.50;;
2031;SDS011;27625;50.422;7.944;2022-08-24T07:06:35;9.20;;;3.63;;
2031;SDS011;27625;50.422;7.944;2022-08-24T07:09:02;6.57;;;3.87;;
2031;SDS011;27625;50.422;7.944;2022-08-24T07:11:28;7.23;;;3.60;;
2031;SDS011;27625;50.422;7.944;2022-08-24T07:13:56;10.20;;;3.93;;
2031;SDS011;27625;50.422;7.944;2022-08-24T07:16:23;5.90;;;3.60;;
2031;SDS011;27625;50.422;7.944;2022-08-24T07:18:49;5.33;;;3.47;;
2031;SDS011;27625;50.422;7.944;2022-08-24T07:21:16;7.60;;;3.50;;
2031;SDS011;27625;50.422;7.944;2022-08-24T07:23:44;6.10;;;3.40;;
2031;SDS011;27625;50.422;7.944;2022-08-24T07:26:12;7.53;;;3.73;;
2031;SDS011;27625;50.422;7.944;2022-08-24T07:28:40;6.63;;;3.47;;
2031;SDS011;27625;50.422;7.944;2022-08-24T07:31:06;6.93;;;3.30;;
2031;SDS011;27625;50.422;7.944;2022-08-24T07:33:34;5.70;;;3.30;;
2031;SDS011;27625;50.422;7.944;2022-08-24T07:36:01;6.20;;;3.67;;
2031;SDS011;27625;50.422;7.944;2022-08-24T07:38:28;14.23;;;3.73;;
2031;SDS011;27625;50.422;7.944;2022-08-24T07:40:56;10.03;;;3.93;;
2031;SDS011;27625;50.422;7.944;2022-08-24T07:43:24;11.57;;;3.90;;
2031;SDS011;27625;50.422;7.944;2022-08-24T07:45:51;6.83;;;3.80;;
2031;SDS011;27625;50.422;7.944;2022-08-24T07:48:17;4.70;;;3.20;;
2031;SDS011;27625;50.422;7.944;2022-08-24T07:50:44;6.60;;;3.77;;
2031;SDS011;27625;50.422;7.944;2022-08-24T07:53:11;5.57;;;3.30;;
2031;SDS011;27625;50.422;7.944;2022-08-24T07:55:38;9.03;;;3.53;;
2031;SDS011;27625;50.422;7.944;2022-08-24T07:58:09;21.10;;;5.37;;
2031;SDS011;27625;50.422;7.944;2022-08-24T08:00:36;5.47;;;3.03;;
2031;SDS011;27625;50.422;7.944;2022-08-24T08:03:02;6.47;;;3.43;;
2031;SDS011;27625;50.422;7.944;2022-08-24T08:05:29;7.10;;;3.30;;
2031;SDS011;27625;50.422;7.944;2022-08-24T08:07:56;4.73;;;3.20;;
2031;SDS011;27625;50.422;7.944;2022-08-24T08:10:25;5.17;;;3.10;;
2031;SDS011;27625;50.422;7.944;2022-08-24T08:12:56;7.70;;;3.60;;
2031;SDS011;27625;50.422;7.944;2022-08-24T08:15:25;7.10;;;3.50;;
2031;SDS011;27625;50.422;7.944;2022-08-24T08:17:52;4.43;;;2.77;;
2031;SDS011;27625;50.422;7.944;2022-08-24T08:20:18;4.60;;;3.20;;
2031;SDS011;27625;50.422;7.944;2022-08-24T08:22:46;6.75;;;3.40;;
2031;SDS011;27625;50.422;7.944;2022-08-24T08:25:30;7.00;;;3.10;;
2031;SDS011;27625;50.422;7.944;2022-08-24T08:27:57;5.17;;;3.07;;
2031;SDS011;27625;50.422;7.944;2022-08-24T08:30:25;5.73;;;3.00;;
2031;SDS011;27625;50.422;7.944;2022-08-24T08:32:52;6.80;;;3.10;;
2031;SDS011;27625;50.422;7.944;2022-08-24T08:35:18;4.47;;;3.23;;
2031;SDS011;27625;50.422;7.944;2022-08-24T08:37:45;11.33;;;3.60;;
2031;SDS011;27625;50.422;7.944;2022-08-24T08:40:15;5.80;;;3.23;;
2031;SDS011;27625;50.422;7.944;2022-08-24T08:42:55;8.77;;;3.37;;
2031;SDS011;27625;50.422;7.944;2022-08-24T08:45:30;5.47;;;3.60;;
2031;SDS011;27625;50.422;7.944;2022-08-24T08:51:08;5.90;;;3.00;;
2031;SDS011;27625;50.422;7.944;2022-08-24T08:54:05;4.80;;;3.23;;
2031;SDS011;27625;50.422;7.944;2022-08-24T08:56:39;8.83;;;3.10;;
2031;SDS011;27625;50.422;7.944;2022-08-24T08:59:12;5.47;;;3.43;;
2031;SDS011;27625;50.422;7.944;2022-08-24T09:01:46;5.13;;;3.03;;
2031;SDS011;27625;50.422;7.944;2022-08-24T09:04:24;4.80;;;2.83;;
2031;SDS011;27625;50.422;7.944;2022-08-24T09:07:26;6.23;;;2.90;;
2031;SDS011;27625;50.422;7.944;2022-08-24T09:10:03;8.13;;;3.40;;
2031;SDS011;27625;50.422;7.944;2022-08-24T09:13:02;6.17;;;3.23;;
2031;SDS011;27625;50.422;7.944;2022-08-24T09:15:36;4.50;;;3.30;;
2031;SDS011;27625;50.422;7.944;2022-08-24T09:18:19;6.13;;;3.13;;
2031;SDS011;27625;50.422;7.944;2022-08-24T09:21:00;5.37;;;2.90;;
2031;SDS011;27625;50.422;7.944;2022-08-24T09:23:55;5.80;;;3.00;;
2031;SDS011;27625;50.422;7.944;2022-08-24T09:26:26;7.20;;;3.23;;
2031;SDS011;27625;50.422;7.944;2022-08-24T09:29:00;6.97;;;3.47;;
2031;SDS011;27625;50.422;7.944;2022-08-24T09:34:26;6.33;;;3.20;;
2031;SDS011;27625;50.422;7.944;2022-08-24T09:37:01;6.10;;;3.30;;
2031;SDS011;27625;50.422;7.944;2022-08-24T09:39:34;4.73;;;3.23;;
2031;SDS011;27625;50.422;7.944;2022-08-24T09:42:33;6.23;;;3.00;;
2031;SDS011;27625;50.422;7.944;2022-08-24T09:45:24;10.30;;;3.57;;
2031;SDS011;27625;50.422;7.944;2022-08-24T09:48:23;6.50;;;3.80;;
2031;SDS011;27625;50.422;7.944;2022-08-24T09:51:10;6.13;;;3.37;;
2031;SDS011;27625;50.422;7.944;2022-08-24T09:54:03;7.97;;;3.30;;
2031;SDS011;27625;50.422;7.944;2022-08-24T09:57:00;5.60;;;3.00;;
2031;SDS011;27625;50.422;7.944;2022-08-24T09:59:49;4.50;;;3.03;;
2031;SDS011;27625;50.422;7.944;2022-08-24T10:05:29;8.70;;;3.20;;
2031;SDS011;27625;50.422;7.944;2022-08-24T10:08:03;8.73;;;3.20;;
2031;SDS011;27625;50.422;7.944;2022-08-24T10:10:40;4.97;;;3.43;;
2031;SDS011;27625;50.422;7.944;2022-08-24T10:13:13;6.23;;;3.40;;
2031;SDS011;27625;50.422;7.944;2022-08-24T10:15:46;7.53;;;3.20;;
2031;SDS011;27625;50.422;7.944;2022-08-24T10:18:23;12.47;;;3.70;;
2031;SDS011;27625;50.422;7.944;2022-08-24T10:21:05;4.07;;;2.90;;
2031;SDS011;27625;50.422;7.944;2022-08-24T10:23:43;7.20;;;3.30;;
2031;SDS011;27625;50.422;7.944;2022-08-24T10:26:16;4.70;;;3.10;;
2031;SDS011;27625;50.422;7.944;2022-08-24T10:28:51;11.03;;;3.97;;
2031;SDS011;27625;50.422;7.944;2022-08-24T10:31:26;8.70;;;3.50;;
2031;SDS011;27625;50.422;7.944;2022-08-24T10:34:01;5.20;;;3.20;;
2031;SDS011;27625;50.422;7.944;2022-08-24T10:36:46;5.33;;;3.13;;
2031;SDS011;27625;50.422;7.944;2022-08-24T10:39:25;5.13;;;3.53;;
2031;SDS011;27625;50.422;7.944;2022-08-24T10:42:18;4.67;;;2.93;;
2031;SDS011;27625;50.422;7.944;2022-08-24T10:45:37;5.90;;;3.40;;
2031;SDS011;27625;50.422;7.944;2022-08-24T10:48:16;5.80;;;3.00;;
2031;SDS011;27625;50.422;7.944;2022-08-24T10:50:55;8.93;;;3.30;;
2031;SDS011;27625;50.422;7.944;2022-08-24T10:53:26;5.67;;;3.07;;
2031;SDS011;27625;50.422;7.944;2022-08-24T10:56:09;5.60;;;3.00;;
2031;SDS011;27625;50.422;7.944;2022-08-24T10:58:48;6.17;;;3.37;;
2031;SDS011;27625;50.422;7.944;2022-08-24T11:01:19;7.27;;;3.03;;
2031;SDS011;27625;50.422;7.944;2022-08-24T11:03:52;5.43;;;3.47;;
2031;SDS011;27625;50.422;7.944;2022-08-24T11:06:22;4.83;;;3.30;;
2031;SDS011;27625;50.422;7.944;2022-08-24T11:08:51;7.87;;;3.80;;
2031;SDS011;27625;50.422;7.944;2022-08-24T11:11:23;6.53;;;3.73;;
2031;SDS011;27625;50.422;7.944;2022-08-24T11:13:52;6.70;;;3.30;;
2031;SDS011;27625;50.422;7.944;2022-08-24T11:16:24;33.97;;;6.43;;
2031;SDS011;27625;50.422;7.944;2022-08-24T11:18:59;40.13;;;7.70;;
2031;SDS011;27625;50.422;7.944;2022-08-24T11:21:32;35.00;;;5.67;;
2031;SDS011;27625;50.422;7.944;2022-08-24T11:24:08;16.13;;;5.20;;
2031;SDS011;27625;50.422;7.944;2022-08-24T11:26:47;25.57;;;4.90;;
2031;SDS011;27625;50.422;7.944;2022-08-24T11:29:17;12.70;;;4.10;;
2031;SDS011;27625;50.422;7.944;2022-08-24T11:31:46;14.07;;;3.70;;
2031;SDS011;27625;50.422;7.944;2022-08-24T11:34:15;10.33;;;3.93;;
2031;SDS011;27625;50.422;7.944;2022-08-24T11:36:46;8.57;;;3.60;;
2031;SDS011;27625;50.422;7.944;2022-08-24T11:39:16;7.07;;;3.63;;
2031;SDS011;27625;50.422;7.944;2022-08-24T11:41:52;6.33;;;3.50;;
2031;SDS011;27625;50.422;7.944;2022-08-24T11:44:26;41.20;;;6.60;;
2031;SDS011;27625;50.422;7.944;2022-08-24T11:47:04;9.13;;;3.60;;
2031;SDS011;27625;50.422;7.944;2022-08-24T11:49:51;5.30;;;3.53;;
2031;SDS011;27625;50.422;7.944;2022-08-24T11:52:23;6.53;;;3.63;;
2031;SDS011;27625;50.422;7.944;2022-08-24T11:55:00;5.90;;;3.83;;
2031;SDS011;27625;50.422;7.944;2022-08-24T11:57:32;5.73;;;3.40;;
2031;SDS011;27625;50.422;7.944;2022-08-24T12:00:05;5.43;;;3.63;;
2031;SDS011;27625;50.422;7.944;2022-08-24T12:02:38;5.13;;;3.57;;
2031;SDS011;27625;50.422;7.944;2022-08-24T12:05:11;8.50;;;3.90;;
2031;SDS011;27625;50.422;7.944;2022-08-24T12:07:47;5.27;;;3.77;;
2031;SDS011;27625;50.422;7.944;2022-08-24T12:10:18;5.20;;;3.73;;
2031;SDS011;27625;50.422;7.944;2022-08-24T12:12:59;6.87;;;3.37;;
2031;SDS011;27625;50.422;7.944;2022-08-24T12:15:34;5.60;;;4.00;;
2031;SDS011;27625;50.422;7.944;2022-08-24T12:18:12;6.90;;;3.80;;
2031;SDS011;27625;50.422;7.944;2022-08-24T12:20:44;7.17;;;3.90;;
2031;SDS011;27625;50.422;7.944;2022-08-24T12:23:14;6.13;;;3.80;;
2031;SDS011;27625;50.422;7.944;2022-08-24T12:25:46;4.70;;;3.63;;
2031;SDS011;27625;50.422;7.944;2022-08-24T12:28:29;4.57;;;3.20;;
2031;SDS011;27625;50.422;7.944;2022-08-24T12:31:01;5.57;;;3.37;;
2031;SDS011;27625;50.422;7.944;2022-08-24T12:33:32;6.73;;;3.20;;
2031;SDS011;27625;50.422;7.944;2022-08-24T12:36:02;17.13;;;3.97;;
2031;SDS011;27625;50.422;7.944;2022-08-24T12:38:51;7.40;;;2.93;;
2031;SDS011;27625;50.422;7.944;2022-08-24T12:41:28;5.60;;;3.30;;
2031;SDS011;27625;50.422;7.944;2022-08-24T12:44:01;4.40;;;3.07;;
2031;SDS011;27625;50.422;7.944;2022-08-24T12:46:34;6.03;;;3.47;;
2031;SDS011;27625;50.422;7.944;2022-08-24T12:49:03;5.53;;;3.00;;
2031;SDS011;27625;50.422;7.944;2022-08-24T12:51:38;8.20;;;3.87;;
2031;SDS011;27625;50.422;7.944;2022-08-24T12:54:26;5.17;;;3.37;;
2031;SDS011;27625;50.422;7.944;2022-08-24T12:57:14;6.27;;;3.50;;
2031;SDS011;27625;50.422;7.944;2022-08-24T13:00:01;12.00;;;3.80;;
2031;SDS011;27625;50.422;7.944;2022-08-24T13:02:44;7.67;;;3.80;;
2031;SDS011;27625;50.422;7.944;2022-08-24T13:05:24;7.30;;;3.80;;
2031;SDS011;27625;50.422;7.944;2022-08-24T13:08:12;5.50;;;2.80;;
2031;SDS011;27625;50.422;7.944;2022-08-24T13:10:44;6.40;;;3.13;;
2031;SDS011;27625;50.422;7.944;2022-08-24T13:13:20;6.70;;;3.70;;
2031;SDS011;27625;50.422;7.944;2022-08-24T13:16:08;5.73;;;3.40;;
2031;SDS011;27625;50.422;7.944;2022-08-24T13:18:45;5.13;;;3.50;;
2031;SDS011;27625;50.422;7.944;2022-08-24T13:30:19;5.60;;;3.03;;
2031;SDS011;27625;50.422;7.944;2022-08-24T13:32:54;5.33;;;3.13;;
2031;SDS011;27625;50.422;7.944;2022-08-24T13:35:46;6.50;;;3.80;;
2031;SDS011;27625;50.422;7.944;2022-08-24T13:38:28;6.80;;;3.70;;
2031;SDS011;27625;50.422;7.944;2022-08-24T13:41:28;6.20;;;3.70;;
2031;SDS011;27625;50.422;7.944;2022-08-24T13:44:15;5.13;;;3.10;;
2031;SDS011;27625;50.422;7.944;2022-08-24T13:47:04;4.90;;;2.83;;
2031;SDS011;27625;50.422;7.944;2022-08-24T13:49:40;5.27;;;3.30;;
2031;SDS011;27625;50.422;7.944;2022-08-24T13:52:15;6.77;;;3.10;;
2031;SDS011;27625;50.422;7.944;2022-08-24T13:54:48;5.80;;;3.20;;
2031;SDS011;27625;50.422;7.944;2022-08-24T13:57:26;5.30;;;3.20;;
2031;SDS011;27625;50.422;7.944;2022-08-24T14:00:00;6.50;;;3.80;;
2031;SDS011;27625;50.422;7.944;2022-08-24T14:02:38;3.87;;;2.87;;
2031;SDS011;27625;50.422;7.944;2022-08-24T14:05:15;6.50;;;3.43;;
2031;SDS011;27625;50.422;7.944;2022-08-24T14:07:53;4.93;;;2.80;;
2031;SDS011;27625;50.422;7.944;2022-08-24T14:10:31;6.27;;;3.03;;
2031;SDS011;27625;50.422;7.944;2022-08-24T14:13:03;6.90;;;2.87;;
2031;SDS011;27625;50.422;7.944;2022-08-24T14:15:42;5.07;;;2.60;;
2031;SDS011;27625;50.422;7.944;2022-08-24T14:18:36;5.00;;;2.90;;
2031;SDS011;27625;50.422;7.944;2022-08-24T14:21:11;4.80;;;3.17;;
2031;SDS011;27625;50.422;7.944;2022-08-24T14:23:43;3.73;;;2.80;;
2031;SDS011;27625;50.422;7.944;2022-08-24T14:29:25;4.60;;;2.80;;
2031;SDS011;27625;50.422;7.944;2022-08-24T14:38:11;15.00;;;3.73;;
2031;SDS011;27625;50.422;7.944;2022-08-24T14:40:56;6.10;;;2.93;;
2031;SDS011;27625;50.422;7.944;2022-08-24T14:43:38;6.93;;;2.83;;
2031;SDS011;27625;50.422;7.944;2022-08-24T14:46:32;4.93;;;2.80;;
2031;SDS011;27625;50.422;7.944;2022-08-24T14:49:07;12.23;;;3.83;;
2031;SDS011;27625;50.422;7.944;2022-08-24T14:51:45;4.73;;;2.87;;
2031;SDS011;27625;50.422;7.944;2022-08-24T14:54:22;5.30;;;2.93;;
2031;SDS011;27625;50.422;7.944;2022-08-24T14:56:57;6.10;;;3.23;;
2031;SDS011;27625;50.422;7.944;2022-08-24T14:59:35;4.50;;;2.97;;
2031;SDS011;27625;50.422;7.944;2022-08-24T15:02:21;5.20;;;3.00;;
2031;SDS011;27625;50.422;7.944;2022-08-24T15:05:17;5.70;;;3.10;;
2031;SDS011;27625;50.422;7.944;2022-08-24T15:07:51;5.23;;;2.73;;
2031;SDS011;27625;50.422;7.944;2022-08-24T15:10:22;4.77;;;2.83;;
2031;SDS011;27625;50.422;7.944;2022-08-24T15:12:52;6.90;;;2.80;;
2031;SDS011;27625;50.422;7.944;2022-08-24T15:15:23;5.60;;;3.00;;
2031;SDS011;27625;50.422;7.944;2022-08-24T15:17:57;5.93;;;2.70;;
2031;SDS011;27625;50.422;7.944;2022-08-24T15:20:31;4.80;;;2.57;;
2031;SDS011;27625;50.422;7.944;2022-08-24T15:23:06;4.20;;;2.73;;
2031;SDS011;27625;50.422;7.944;2022-08-24T15:25:38;4.10;;;2.67;;
2031;SDS011;27625;50.422;7.944;2022-08-24T15:28:11;7.33;;;2.60;;
2031;SDS011;27625;50.422;7.944;2022-08-24T15:30:40;6.87;;;2.73;;
2031;SDS011;27625;50.422;7.944;2022-08-24T15:33:12;4.20;;;2.77;;
2031;SDS011;27625;50.422;7.944;2022-08-24T15:35:40;4.47;;;2.70;;
2031;SDS011;27625;50.422;7.944;2022-08-24T15:38:16;5.63;;;3.03;;
2031;SDS011;27625;50.422;7.944;2022-08-24T15:40:46;4.60;;;2.73;;
2031;SDS011;27625;50.422;7.944;2022-08-24T15:43:13;4.10;;;2.40;;
2031;SDS011;27625;50.422;7.944;2022-08-24T15:45:42;3.73;;;2.60;;
2031;SDS011;27625;50.422;7.944;2022-08-24T15:48:11;4.63;;;2.60;;
2031;SDS011;27625;50.422;7.944;2022-08-24T15:50:40;5.30;;;3.00;;
2031;SDS011;27625;50.422;7.944;2022-08-24T15:53:08;3.90;;;2.60;;
2031;SDS011;27625;50.422;7.944;2022-08-24T15:55:52;4.77;;;2.40;;
2031;SDS011;27625;50.422;7.944;2022-08-24T15:58:31;6.93;;;2.50;;
2031;SDS011;27625;50.422;7.944;2022-08-24T16:01:00;3.83;;;2.30;;